Aérodrome :
LOGIN :

S'inscrire | Disclaimer

   EN    FR    IT 

 










Légende :    VFR   VFR Marginal   IFR   IFR Intensif   IFR Très Intensif
Visi : 
Plafond : 
>= 8 km
>= 3000ft
5 à 8 km
1000 à 3000 ft
1500m à 5 km
500 à 1000 ft
800 à 1500m
200 à 500 ft
< 800m
< 200 ft
Symboles :   Orages  Brouillard  Fortes neiges  Fortes précipitations  Vent > 20 kt
SIGMETs :   Divers  Orages  Givrage  Turbulence  Onde Orograph.  Cendres Volcan.







- Altitude de l'aérodrome : 364 ft
- Code IATA : FRA


EDDF - Frankfurt Int.

DERNIER METAR :
  • 232150Z 18010KT 9999 FEW015 BKN020 08/04 Q1024 NOSIG

METARs EXPIRÉS :
  • 232120Z 18009KT 9999 FEW015 BKN021 08/04 Q1024 NOSIG
  • 232050Z 20009KT 9999 FEW018 BKN023 08/04 Q1024 NOSIG
  • 232020Z 19010KT 9999 FEW020 BKN026 08/04 Q1023 NOSIG
  • 231950Z 19007KT 150V210 9999 FEW020 BKN028 07/05 Q1024 NOSIG
  • 231920Z 19009KT 9999 FEW017 BKN029 BKN038 07/05 Q1024 NOSIG

TAF TAF EDDF
Valide du 23 à 18h jusqu'au 25 à 00h UTC


231700Z 2318/2424 20010KT 9999 BKN040
PROB30
TEMPO 2320/2406 DZRA BKN012
PROB30
TEMPO 2409/2416 20015G25KT
Pas de NOTAMs connus pour ce terrain.



MET'MAP, la Météo Aéronautique d'un coup d'oeil ! - Copyright ORBIFLY Décembre 2007 - Disclaimer

ORBIFLY MET'MAP TEAM :

Programmation & Développement : Alexandra Zaïnal
Conception & Développement : Baudouin d'Aumeries
Co-Programmation & Développement : Marc-Olivier Méhu
Soutien technique & logistique : Manuel Goepfert

Contact : metmap@orbifly.com




SOURCES & CREDITS :

   NOAA